sensor_id;sensor_type;location;lat;lon;timestamp;temperature;humidity
9824;DHT22;4951;50.778;7.196;2024-01-06T00:00:00;7.30;99.90
9824;DHT22;4951;50.778;7.196;2024-01-06T00:03:07;7.30;99.90
9824;DHT22;4951;50.778;7.196;2024-01-06T00:05:39;7.30;99.90
9824;DHT22;4951;50.778;7.196;2024-01-06T00:08:13;7.30;1.00
9824;DHT22;4951;50.778;7.196;2024-01-06T00:10:57;7.30;1.00
9824;DHT22;4951;50.778;7.196;2024-01-06T00:13:30;7.30;1.00
9824;DHT22;4951;50.778;7.196;2024-01-06T00:16:01;7.30;1.00
9824;DHT22;4951;50.778;7.196;2024-01-06T00:18:44;7.30;1.00
9824;DHT22;4951;50.778;7.196;2024-01-06T00:21:35;7.30;1.00
9824;DHT22;4951;50.778;7.196;2024-01-06T00:24:14;7.30;1.00
9824;DHT22;4951;50.778;7.196;2024-01-06T00:26:45;7.30;6.50
9824;DHT22;4951;50.778;7.196;2024-01-06T00:29:16;7.30;99.90
9824;DHT22;4951;50.778;7.196;2024-01-06T00:31:45;7.30;99.90
9824;DHT22;4951;50.778;7.196;2024-01-06T00:34:18;7.30;99.90
9824;DHT22;4951;50.778;7.196;2024-01-06T00:36:50;7.30;99.90
9824;DHT22;4951;50.778;7.196;2024-01-06T00:39:42;7.30;1.00
9824;DHT22;4951;50.778;7.196;2024-01-06T00:42:10;7.30;1.00
9824;DHT22;4951;50.778;7.196;2024-01-06T00:44:42;7.30;1.00
9824;DHT22;4951;50.778;7.196;2024-01-06T00:47:12;7.30;1.00
9824;DHT22;4951;50.778;7.196;2024-01-06T00:49:46;7.30;98.80
9824;DHT22;4951;50.778;7.196;2024-01-06T00:52:18;7.30;99.90
9824;DHT22;4951;50.778;7.196;2024-01-06T00:55:08;7.30;99.90
9824;DHT22;4951;50.778;7.196;2024-01-06T00:57:37;7.30;99.90
9824;DHT22;4951;50.778;7.196;2024-01-06T01:00:21;7.30;99.90
9824;DHT22;4951;50.778;7.196;2024-01-06T01:03:05;7.30;99.90
9824;DHT22;4951;50.778;7.196;2024-01-06T01:05:34;7.30;99.90
9824;DHT22;4951;50.778;7.196;2024-01-06T01:08:05;7.30;1.00
9824;DHT22;4951;50.778;7.196;2024-01-06T01:10:34;7.30;1.00
9824;DHT22;4951;50.778;7.196;2024-01-06T01:13:13;7.30;1.00
9824;DHT22;4951;50.778;7.196;2024-01-06T01:15:58;7.30;1.00
9824;DHT22;4951;50.778;7.196;2024-01-06T01:18:38;7.30;4.10
9824;DHT22;4951;50.778;7.196;2024-01-06T01:21:20;7.20;99.90
9824;DHT22;4951;50.778;7.196;2024-01-06T01:24:14;7.20;99.90
9824;DHT22;4951;50.778;7.196;2024-01-06T01:26:56;7.20;99.90
9824;DHT22;4951;50.778;7.196;2024-01-06T01:29:28;7.20;99.90
9824;DHT22;4951;50.778;7.196;2024-01-06T01:32:00;7.10;99.90
9824;DHT22;4951;50.778;7.196;2024-01-06T01:34:40;7.00;99.90
9824;DHT22;4951;50.778;7.196;2024-01-06T01:37:14;6.90;1.00
9824;DHT22;4951;50.778;7.196;2024-01-06T01:39:47;6.90;1.00
9824;DHT22;4951;50.778;7.196;2024-01-06T01:42:18;6.80;1.00
9824;DHT22;4951;50.778;7.196;2024-01-06T01:45:01;6.70;1.00
9824;DHT22;4951;50.778;7.196;2024-01-06T01:47:43;6.70;1.00
9824;DHT22;4951;50.778;7.196;2024-01-06T01:50:13;6.70;1.00
9824;DHT22;4951;50.778;7.196;2024-01-06T01:53:33;6.70;1.00
9824;DHT22;4951;50.778;7.196;2024-01-06T01:56:11;6.70;1.00
9824;DHT22;4951;50.778;7.196;2024-01-06T01:58:41;6.70;1.00
9824;DHT22;4951;50.778;7.196;2024-01-06T02:01:12;6.70;39.80
9824;DHT22;4951;50.778;7.196;2024-01-06T02:03:46;6.70;99.90
9824;DHT22;4951;50.778;7.196;2024-01-06T02:09:08;6.70;99.90
9824;DHT22;4951;50.778;7.196;2024-01-06T02:11:58;6.70;99.90
9824;DHT22;4951;50.778;7.196;2024-01-06T02:14:46;6.70;99.90
9824;DHT22;4951;50.778;7.196;2024-01-06T02:17:21;6.60;99.90
9824;DHT22;4951;50.778;7.196;2024-01-06T02:19:54;6.60;99.90
9824;DHT22;4951;50.778;7.196;2024-01-06T02:22:33;6.60;99.90
9824;DHT22;4951;50.778;7.196;2024-01-06T02:27:58;6.60;1.00
9824;DHT22;4951;50.778;7.196;2024-01-06T02:30:32;6.60;1.00
9824;DHT22;4951;50.778;7.196;2024-01-06T02:33:04;6.70;1.00
9824;DHT22;4951;50.778;7.196;2024-01-06T02:35:34;6.60;1.00
9824;DHT22;4951;50.778;7.196;2024-01-06T02:38:09;6.70;1.00
9824;DHT22;4951;50.778;7.196;2024-01-06T02:40:47;6.70;1.00
9824;DHT22;4951;50.778;7.196;2024-01-06T02:43:26;6.70;1.00
9824;DHT22;4951;50.778;7.196;2024-01-06T02:46:01;6.70;1.00
9824;DHT22;4951;50.778;7.196;2024-01-06T02:48:35;6.70;1.00
9824;DHT22;4951;50.778;7.196;2024-01-06T02:51:22;6.70;1.00
9824;DHT22;4951;50.778;7.196;2024-01-06T02:54:13;6.70;1.00
9824;DHT22;4951;50.778;7.196;2024-01-06T02:56:56;6.70;1.00
9824;DHT22;4951;50.778;7.196;2024-01-06T02:59:26;6.70;1.00
9824;DHT22;4951;50.778;7.196;2024-01-06T03:01:57;6.70;1.00
9824;DHT22;4951;50.778;7.196;2024-01-06T03:04:34;6.70;1.00
9824;DHT22;4951;50.778;7.196;2024-01-06T03:07:28;6.70;1.00
9824;DHT22;4951;50.778;7.196;2024-01-06T03:10:07;6.70;1.00
9824;DHT22;4951;50.778;7.196;2024-01-06T03:13:13;6.80;1.00
9824;DHT22;4951;50.778;7.196;2024-01-06T03:15:51;6.80;1.00
9824;DHT22;4951;50.778;7.196;2024-01-06T03:18:23;6.80;1.00
9824;DHT22;4951;50.778;7.196;2024-01-06T03:20:57;6.80;1.00
9824;DHT22;4951;50.778;7.196;2024-01-06T03:23:30;6.80;1.00
9824;DHT22;4951;50.778;7.196;2024-01-06T03:26:07;6.80;1.00
9824;DHT22;4951;50.778;7.196;2024-01-06T03:28:38;6.80;1.00
9824;DHT22;4951;50.778;7.196;2024-01-06T03:31:09;6.80;1.00
9824;DHT22;4951;50.778;7.196;2024-01-06T03:33:44;6.80;1.00
9824;DHT22;4951;50.778;7.196;2024-01-06T03:36:27;6.80;1.00
9824;DHT22;4951;50.778;7.196;2024-01-06T03:39:25;6.70;1.00
9824;DHT22;4951;50.778;7.196;2024-01-06T03:41:56;6.70;1.00
9824;DHT22;4951;50.778;7.196;2024-01-06T03:44:28;6.60;1.00
9824;DHT22;4951;50.778;7.196;2024-01-06T03:47:02;6.60;1.00
9824;DHT22;4951;50.778;7.196;2024-01-06T03:49:33;6.60;1.00
9824;DHT22;4951;50.778;7.196;2024-01-06T03:52:02;6.50;1.00
9824;DHT22;4951;50.778;7.196;2024-01-06T03:54:39;6.50;1.00
9824;DHT22;4951;50.778;7.196;2024-01-06T03:57:13;6.50;1.00
9824;DHT22;4951;50.778;7.196;2024-01-06T03:59:42;6.40;1.00
9824;DHT22;4951;50.778;7.196;2024-01-06T04:02:15;6.40;1.00
9824;DHT22;4951;50.778;7.196;2024-01-06T04:05:01;6.30;1.00
9824;DHT22;4951;50.778;7.196;2024-01-06T04:07:41;6.30;1.00
9824;DHT22;4951;50.778;7.196;2024-01-06T04:10:13;6.40;1.00
9824;DHT22;4951;50.778;7.196;2024-01-06T04:12:43;6.30;1.00
9824;DHT22;4951;50.778;7.196;2024-01-06T04:15:17;6.30;1.00
9824;DHT22;4951;50.778;7.196;2024-01-06T04:17:49;6.30;1.00
9824;DHT22;4951;50.778;7.196;2024-01-06T04:20:34;6.40;1.00
9824;DHT22;4951;50.778;7.196;2024-01-06T04:23:28;6.30;1.00
9824;DHT22;4951;50.778;7.196;2024-01-06T04:26:04;6.40;1.00
9824;DHT22;4951;50.778;7.196;2024-01-06T04:28:36;6.40;1.00
9824;DHT22;4951;50.778;7.196;2024-01-06T04:31:05;6.40;1.00
9824;DHT22;4951;50.778;7.196;2024-01-06T04:33:34;6.40;1.00
9824;DHT22;4951;50.778;7.196;2024-01-06T04:36:11;6.50;1.00
9824;DHT22;4951;50.778;7.196;2024-01-06T04:38:43;6.40;1.00
9824;DHT22;4951;50.778;7.196;2024-01-06T04:41:36;6.40;1.00
9824;DHT22;4951;50.778;7.196;2024-01-06T04:44:13;6.40;1.00
9824;DHT22;4951;50.778;7.196;2024-01-06T04:47:19;6.50;1.00
9824;DHT22;4951;50.778;7.196;2024-01-06T04:49:51;6.50;1.00
9824;DHT22;4951;50.778;7.196;2024-01-06T04:52:20;6.50;1.00
9824;DHT22;4951;50.778;7.196;2024-01-06T04:54:48;6.50;1.00
9824;DHT22;4951;50.778;7.196;2024-01-06T04:57:24;6.50;1.00
9824;DHT22;4951;50.778;7.196;2024-01-06T05:00:06;6.50;1.00
9824;DHT22;4951;50.778;7.196;2024-01-06T05:02:40;6.60;1.00
9824;DHT22;4951;50.778;7.196;2024-01-06T05:05:13;6.60;1.00
9824;DHT22;4951;50.778;7.196;2024-01-06T05:07:41;6.60;1.00
9824;DHT22;4951;50.778;7.196;2024-01-06T05:10:14;6.60;1.00
9824;DHT22;4951;50.778;7.196;2024-01-06T05:12:46;6.60;1.00
9824;DHT22;4951;50.778;7.196;2024-01-06T05:15:17;6.70;1.00
9824;DHT22;4951;50.778;7.196;2024-01-06T05:17:47;6.60;2.90
9824;DHT22;4951;50.778;7.196;2024-01-06T05:20:23;6.70;6.50
9824;DHT22;4951;50.778;7.196;2024-01-06T05:22:56;6.70;9.50
9824;DHT22;4951;50.778;7.196;2024-01-06T05:25:24;6.70;11.80
9824;DHT22;4951;50.778;7.196;2024-01-06T05:27:52;6.70;13.50
9824;DHT22;4951;50.778;7.196;2024-01-06T05:30:22;6.70;19.40
9824;DHT22;4951;50.778;7.196;2024-01-06T05:32:57;6.70;21.10
9824;DHT22;4951;50.778;7.196;2024-01-06T05:35:25;6.70;24.80
9824;DHT22;4951;50.778;7.196;2024-01-06T05:38:01;6.70;25.20
9824;DHT22;4951;50.778;7.196;2024-01-06T05:40:39;6.70;28.00
9824;DHT22;4951;50.778;7.196;2024-01-06T05:43:08;6.70;33.80
9824;DHT22;4951;50.778;7.196;2024-01-06T05:45:42;6.70;38.90
9824;DHT22;4951;50.778;7.196;2024-01-06T05:48:18;6.70;50.60
9824;DHT22;4951;50.778;7.196;2024-01-06T05:50:47;6.60;57.90
9824;DHT22;4951;50.778;7.196;2024-01-06T05:53:20;6.60;64.40
9824;DHT22;4951;50.778;7.196;2024-01-06T05:56:00;6.60;65.60
9824;DHT22;4951;50.778;7.196;2024-01-06T05:58:31;6.70;68.50
9824;DHT22;4951;50.778;7.196;2024-01-06T06:01:09;6.60;81.90
9824;DHT22;4951;50.778;7.196;2024-01-06T06:03:51;6.60;88.80
9824;DHT22;4951;50.778;7.196;2024-01-06T06:06:40;6.60;93.00
9824;DHT22;4951;50.778;7.196;2024-01-06T06:09:15;6.60;99.90
9824;DHT22;4951;50.778;7.196;2024-01-06T06:11:51;6.50;99.90
9824;DHT22;4951;50.778;7.196;2024-01-06T06:14:20;6.50;99.90
9824;DHT22;4951;50.778;7.196;2024-01-06T06:17:00;6.50;99.90
9824;DHT22;4951;50.778;7.196;2024-01-06T06:19:54;6.50;99.90
9824;DHT22;4951;50.778;7.196;2024-01-06T06:22:23;6.50;99.90
9824;DHT22;4951;50.778;7.196;2024-01-06T06:25:01;6.50;99.90
9824;DHT22;4951;50.778;7.196;2024-01-06T06:27:47;6.50;99.90
9824;DHT22;4951;50.778;7.196;2024-01-06T06:30:18;6.50;99.90
9824;DHT22;4951;50.778;7.196;2024-01-06T06:32:53;6.50;99.90
9824;DHT22;4951;50.778;7.196;2024-01-06T06:35:25;6.50;99.90
9824;DHT22;4951;50.778;7.196;2024-01-06T06:38:01;6.50;99.90
9824;DHT22;4951;50.778;7.196;2024-01-06T06:40:36;6.40;99.90
9824;DHT22;4951;50.778;7.196;2024-01-06T06:43:05;6.30;99.90
9824;DHT22;4951;50.778;7.196;2024-01-06T06:45:43;6.30;99.90
9824;DHT22;4951;50.778;7.196;2024-01-06T06:48:17;6.20;99.10
9824;DHT22;4951;50.778;7.196;2024-01-06T06:50:47;6.10;96.70
9824;DHT22;4951;50.778;7.196;2024-01-06T06:53:17;6.00;91.80
9824;DHT22;4951;50.778;7.196;2024-01-06T06:55:46;6.00;93.40
9824;DHT22;4951;50.778;7.196;2024-01-06T06:58:23;6.00;89.30
9824;DHT22;4951;50.778;7.196;2024-01-06T07:00:53;5.90;87.20
9824;DHT22;4951;50.778;7.196;2024-01-06T07:03:23;5.90;88.70
9824;DHT22;4951;50.778;7.196;2024-01-06T07:05:57;5.80;90.00
9824;DHT22;4951;50.778;7.196;2024-01-06T07:08:29;5.80;89.20
9824;DHT22;4951;50.778;7.196;2024-01-06T07:11:00;5.80;83.20
9824;DHT22;4951;50.778;7.196;2024-01-06T07:13:30;5.80;78.10
9824;DHT22;4951;50.778;7.196;2024-01-06T07:15:58;5.70;73.90
9824;DHT22;4951;50.778;7.196;2024-01-06T07:18:33;5.70;68.30
9824;DHT22;4951;50.778;7.196;2024-01-06T07:21:07;5.60;79.40
9824;DHT22;4951;50.778;7.196;2024-01-06T07:23:39;5.60;85.90
9824;DHT22;4951;50.778;7.196;2024-01-06T07:26:13;5.60;84.60
9824;DHT22;4951;50.778;7.196;2024-01-06T07:29:06;5.60;87.00
9824;DHT22;4951;50.778;7.196;2024-01-06T07:31:49;5.60;78.10
9824;DHT22;4951;50.778;7.196;2024-01-06T07:34:20;5.50;74.30
9824;DHT22;4951;50.778;7.196;2024-01-06T07:37:01;5.50;77.60
9824;DHT22;4951;50.778;7.196;2024-01-06T07:39:35;5.40;75.10
9824;DHT22;4951;50.778;7.196;2024-01-06T07:42:20;5.40;70.30
9824;DHT22;4951;50.778;7.196;2024-01-06T07:44:50;5.30;60.30
9824;DHT22;4951;50.778;7.196;2024-01-06T07:47:19;5.30;68.50
9824;DHT22;4951;50.778;7.196;2024-01-06T07:49:55;5.30;67.80
9824;DHT22;4951;50.778;7.196;2024-01-06T07:52:26;5.20;68.60
9824;DHT22;4951;50.778;7.196;2024-01-06T07:54:57;5.20;63.00
9824;DHT22;4951;50.778;7.196;2024-01-06T07:57:37;5.20;61.50
9824;DHT22;4951;50.778;7.196;2024-01-06T08:00:12;5.20;61.20
9824;DHT22;4951;50.778;7.196;2024-01-06T08:02:43;5.20;57.60
9824;DHT22;4951;50.778;7.196;2024-01-06T08:05:17;5.20;55.70
9824;DHT22;4951;50.778;7.196;2024-01-06T08:07:49;5.20;51.70
9824;DHT22;4951;50.778;7.196;2024-01-06T08:10:20;5.10;51.10
9824;DHT22;4951;50.778;7.196;2024-01-06T08:12:51;5.20;49.00
9824;DHT22;4951;50.778;7.196;2024-01-06T08:15:22;5.10;47.10
9824;DHT22;4951;50.778;7.196;2024-01-06T08:18:02;5.10;44.80
9824;DHT22;4951;50.778;7.196;2024-01-06T08:20:54;5.10;43.10
9824;DHT22;4951;50.778;7.196;2024-01-06T08:23:42;5.10;38.70
9824;DHT22;4951;50.778;7.196;2024-01-06T08:26:20;5.20;35.90
9824;DHT22;4951;50.778;7.196;2024-01-06T08:28:58;5.20;34.10
9824;DHT22;4951;50.778;7.196;2024-01-06T08:32:00;5.20;33.20
9824;DHT22;4951;50.778;7.196;2024-01-06T08:34:43;5.20;34.20
9824;DHT22;4951;50.778;7.196;2024-01-06T08:37:26;5.20;34.80
9824;DHT22;4951;50.778;7.196;2024-01-06T08:40:26;5.20;29.60
9824;DHT22;4951;50.778;7.196;2024-01-06T08:42:57;5.30;36.00
9824;DHT22;4951;50.778;7.196;2024-01-06T08:45:37;5.30;34.80
9824;DHT22;4951;50.778;7.196;2024-01-06T08:48:19;5.30;32.70
9824;DHT22;4951;50.778;7.196;2024-01-06T08:51:08;5.30;28.30
9824;DHT22;4951;50.778;7.196;2024-01-06T08:54:06;5.30;29.40
9824;DHT22;4951;50.778;7.196;2024-01-06T08:57:15;5.30;26.00
9824;DHT22;4951;50.778;7.196;2024-01-06T09:00:25;5.30;29.00
9824;DHT22;4951;50.778;7.196;2024-01-06T09:03:01;5.30;30.20
9824;DHT22;4951;50.778;7.196;2024-01-06T09:06:08;5.30;27.80
9824;DHT22;4951;50.778;7.196;2024-01-06T09:12:26;5.40;25.50
9824;DHT22;4951;50.778;7.196;2024-01-06T09:15:22;5.30;22.50
9824;DHT22;4951;50.778;7.196;2024-01-06T09:18:03;5.30;21.00
9824;DHT22;4951;50.778;7.196;2024-01-06T09:21:06;5.30;24.50
9824;DHT22;4951;50.778;7.196;2024-01-06T09:23:41;5.30;22.70
9824;DHT22;4951;50.778;7.196;2024-01-06T09:26:26;5.30;23.30
9824;DHT22;4951;50.778;7.196;2024-01-06T09:28:57;5.30;25.10
9824;DHT22;4951;50.778;7.196;2024-01-06T09:31:43;5.30;24.60
9824;DHT22;4951;50.778;7.196;2024-01-06T09:34:17;5.40;26.70
9824;DHT22;4951;50.778;7.196;2024-01-06T09:36:46;5.30;22.30
9824;DHT22;4951;50.778;7.196;2024-01-06T09:39:41;5.30;26.50
9824;DHT22;4951;50.778;7.196;2024-01-06T09:42:22;5.30;26.30
9824;DHT22;4951;50.778;7.196;2024-01-06T09:45:10;5.30;28.30
9824;DHT22;4951;50.778;7.196;2024-01-06T09:47:49;5.30;28.60
9824;DHT22;4951;50.778;7.196;2024-01-06T09:51:03;5.40;31.70
9824;DHT22;4951;50.778;7.196;2024-01-06T09:54:47;5.30;33.00
9824;DHT22;4951;50.778;7.196;2024-01-06T09:57:36;5.30;34.60
9824;DHT22;4951;50.778;7.196;2024-01-06T10:00:26;5.40;36.50
9824;DHT22;4951;50.778;7.196;2024-01-06T10:03:14;5.40;37.90
9824;DHT22;4951;50.778;7.196;2024-01-06T10:05:55;5.40;41.10
9824;DHT22;4951;50.778;7.196;2024-01-06T10:08:42;5.40;41.80
9824;DHT22;4951;50.778;7.196;2024-01-06T10:11:14;5.50;47.20
9824;DHT22;4951;50.778;7.196;2024-01-06T10:13:43;5.50;47.20
9824;DHT22;4951;50.778;7.196;2024-01-06T10:16:18;5.50;46.50
9824;DHT22;4951;50.778;7.196;2024-01-06T10:19:17;5.60;41.70
9824;DHT22;4951;50.778;7.196;2024-01-06T10:21:48;5.60;34.80
9824;DHT22;4951;50.778;7.196;2024-01-06T10:24:45;5.60;27.80
9824;DHT22;4951;50.778;7.196;2024-01-06T10:27:46;5.50;25.40
9824;DHT22;4951;50.778;7.196;2024-01-06T10:30:28;5.50;22.60
9824;DHT22;4951;50.778;7.196;2024-01-06T10:33:39;5.50;21.20
9824;DHT22;4951;50.778;7.196;2024-01-06T10:36:22;5.50;12.20
9824;DHT22;4951;50.778;7.196;2024-01-06T10:39:03;5.50;10.10
9824;DHT22;4951;50.778;7.196;2024-01-06T10:44:45;5.40;10.30
9824;DHT22;4951;50.778;7.196;2024-01-06T10:47:44;5.40;5.90
9824;DHT22;4951;50.778;7.196;2024-01-06T10:50:33;5.40;2.60
9824;DHT22;4951;50.778;7.196;2024-01-06T10:53:02;5.40;1.40
9824;DHT22;4951;50.778;7.196;2024-01-06T10:55:44;5.40;1.00
9824;DHT22;4951;50.778;7.196;2024-01-06T10:58:23;5.40;1.00
9824;DHT22;4951;50.778;7.196;2024-01-06T11:01:24;5.40;1.00
9824;DHT22;4951;50.778;7.196;2024-01-06T11:03:59;5.40;1.00
9824;DHT22;4951;50.778;7.196;2024-01-06T11:06:46;5.40;1.00
9824;DHT22;4951;50.778;7.196;2024-01-06T11:09:24;5.40;1.00
9824;DHT22;4951;50.778;7.196;2024-01-06T11:12:04;5.40;1.00
9824;DHT22;4951;50.778;7.196;2024-01-06T11:14:46;5.40;1.00
9824;DHT22;4951;50.778;7.196;2024-01-06T11:17:54;5.40;1.00
9824;DHT22;4951;50.778;7.196;2024-01-06T11:20:27;5.40;1.00
9824;DHT22;4951;50.778;7.196;2024-01-06T11:23:18;5.40;1.00
9824;DHT22;4951;50.778;7.196;2024-01-06T11:25:49;5.40;1.00
9824;DHT22;4951;50.778;7.196;2024-01-06T11:28:19;5.40;1.00
9824;DHT22;4951;50.778;7.196;2024-01-06T11:31:05;5.40;1.00
9824;DHT22;4951;50.778;7.196;2024-01-06T11:33:45;5.40;1.00
9824;DHT22;4951;50.778;7.196;2024-01-06T11:36:20;5.50;1.00
9824;DHT22;4951;50.778;7.196;2024-01-06T11:39:02;5.40;1.00
9824;DHT22;4951;50.778;7.196;2024-01-06T11:41:52;5.40;1.00
9824;DHT22;4951;50.778;7.196;2024-01-06T11:44:28;5.40;1.00
9824;DHT22;4951;50.778;7.196;2024-01-06T11:46:57;5.40;1.00
9824;DHT22;4951;50.778;7.196;2024-01-06T11:49:30;5.40;1.00
9824;DHT22;4951;50.778;7.196;2024-01-06T11:52:04;5.40;1.00
9824;DHT22;4951;50.778;7.196;2024-01-06T11:54:39;5.40;1.00
9824;DHT22;4951;50.778;7.196;2024-01-06T11:57:09;5.30;1.00
9824;DHT22;4951;50.778;7.196;2024-01-06T11:59:38;5.30;1.00
9824;DHT22;4951;50.778;7.196;2024-01-06T12:02:11;5.30;1.00
9824;DHT22;4951;50.778;7.196;2024-01-06T12:04:42;5.30;1.00
9824;DHT22;4951;50.778;7.196;2024-01-06T12:07:37;5.30;1.00
9824;DHT22;4951;50.778;7.196;2024-01-06T12:10:14;5.30;1.00
9824;DHT22;4951;50.778;7.196;2024-01-06T12:12:55;5.40;1.00
9824;DHT22;4951;50.778;7.196;2024-01-06T12:15:32;5.40;1.00
9824;DHT22;4951;50.778;7.196;2024-01-06T12:18:13;5.40;1.00
9824;DHT22;4951;50.778;7.196;2024-01-06T12:20:46;5.40;1.00
9824;DHT22;4951;50.778;7.196;2024-01-06T12:23:24;5.40;1.00
9824;DHT22;4951;50.778;7.196;2024-01-06T12:26:07;5.40;1.00
9824;DHT22;4951;50.778;7.196;2024-01-06T12:28:38;5.40;1.00
9824;DHT22;4951;50.778;7.196;2024-01-06T12:31:09;5.40;1.00
9824;DHT22;4951;50.778;7.196;2024-01-06T12:33:46;5.40;1.00
9824;DHT22;4951;50.778;7.196;2024-01-06T12:36:21;5.40;1.00
9824;DHT22;4951;50.778;7.196;2024-01-06T12:39:18;5.40;1.00
9824;DHT22;4951;50.778;7.196;2024-01-06T12:41:51;5.40;1.00
9824;DHT22;4951;50.778;7.196;2024-01-06T12:44:21;5.40;1.00
9824;DHT22;4951;50.778;7.196;2024-01-06T12:46:49;5.50;1.00
9824;DHT22;4951;50.778;7.196;2024-01-06T12:49:22;5.50;1.00
9824;DHT22;4951;50.778;7.196;2024-01-06T12:51:54;5.50;1.00
9824;DHT22;4951;50.778;7.196;2024-01-06T12:54:24;5.50;1.00
9824;DHT22;4951;50.778;7.196;2024-01-06T12:56:53;5.60;1.00
9824;DHT22;4951;50.778;7.196;2024-01-06T12:59:27;5.60;1.00
9824;DHT22;4951;50.778;7.196;2024-01-06T13:02:04;5.60;1.00
9824;DHT22;4951;50.778;7.196;2024-01-06T13:04:41;5.60;1.00
9824;DHT22;4951;50.778;7.196;2024-01-06T13:07:13;5.60;1.00
9824;DHT22;4951;50.778;7.196;2024-01-06T13:09:48;5.50;1.00
9824;DHT22;4951;50.778;7.196;2024-01-06T13:12:24;5.40;1.00
9824;DHT22;4951;50.778;7.196;2024-01-06T13:14:55;5.40;1.00
9824;DHT22;4951;50.778;7.196;2024-01-06T13:17:24;5.40;1.00
9824;DHT22;4951;50.778;7.196;2024-01-06T13:19:54;5.40;1.00
9824;DHT22;4951;50.778;7.196;2024-01-06T13:22:29;5.30;1.00
9824;DHT22;4951;50.778;7.196;2024-01-06T13:24:58;5.30;1.00
9824;DHT22;4951;50.778;7.196;2024-01-06T13:27:29;5.30;1.00
9824;DHT22;4951;50.778;7.196;2024-01-06T13:30:01;5.20;1.00
9824;DHT22;4951;50.778;7.196;2024-01-06T13:32:31;5.20;1.00
9824;DHT22;4951;50.778;7.196;2024-01-06T13:35:05;5.20;1.00
9824;DHT22;4951;50.778;7.196;2024-01-06T13:37:36;5.10;1.00
9824;DHT22;4951;50.778;7.196;2024-01-06T13:40:14;5.00;1.00
9824;DHT22;4951;50.778;7.196;2024-01-06T13:42:50;4.90;1.00
9824;DHT22;4951;50.778;7.196;2024-01-06T13:45:21;4.90;1.00
9824;DHT22;4951;50.778;7.196;2024-01-06T13:47:50;4.80;1.00
9824;DHT22;4951;50.778;7.196;2024-01-06T13:50:19;4.80;1.00
9824;DHT22;4951;50.778;7.196;2024-01-06T13:52:56;4.80;1.00
9824;DHT22;4951;50.778;7.196;2024-01-06T13:55:39;4.70;1.00
9824;DHT22;4951;50.778;7.196;2024-01-06T13:58:38;4.70;1.00
9824;DHT22;4951;50.778;7.196;2024-01-06T14:01:09;4.60;1.00
9824;DHT22;4951;50.778;7.196;2024-01-06T14:03:54;4.50;1.00
9824;DHT22;4951;50.778;7.196;2024-01-06T14:06:27;4.50;1.00
9824;DHT22;4951;50.778;7.196;2024-01-06T14:09:03;4.40;1.00
9824;DHT22;4951;50.778;7.196;2024-01-06T14:11:42;4.40;1.00
9824;DHT22;4951;50.778;7.196;2024-01-06T14:14:15;4.40;1.00
9824;DHT22;4951;50.778;7.196;2024-01-06T14:16:48;4.40;1.00
9824;DHT22;4951;50.778;7.196;2024-01-06T14:19:37;4.40;1.00
9824;DHT22;4951;50.778;7.196;2024-01-06T14:22:07;4.40;1.00
9824;DHT22;4951;50.778;7.196;2024-01-06T14:24:35;4.40;1.00
9824;DHT22;4951;50.778;7.196;2024-01-06T14:27:05;4.40;1.00
9824;DHT22;4951;50.778;7.196;2024-01-06T14:29:35;4.50;1.00
9824;DHT22;4951;50.778;7.196;2024-01-06T14:32:09;4.50;1.00
9824;DHT22;4951;50.778;7.196;2024-01-06T14:34:57;4.50;1.00
9824;DHT22;4951;50.778;7.196;2024-01-06T14:37:37;4.50;1.00
9824;DHT22;4951;50.778;7.196;2024-01-06T14:40:07;4.50;1.00
9824;DHT22;4951;50.778;7.196;2024-01-06T14:42:50;4.50;1.00
9824;DHT22;4951;50.778;7.196;2024-01-06T14:45:24;4.50;1.00
9824;DHT22;4951;50.778;7.196;2024-01-06T14:47:54;4.50;1.00
9824;DHT22;4951;50.778;7.196;2024-01-06T14:50:24;4.40;1.00
9824;DHT22;4951;50.778;7.196;2024-01-06T14:53:53;4.40;1.00
9824;DHT22;4951;50.778;7.196;2024-01-06T14:56:03;4.40;1.00
9824;DHT22;4951;50.778;7.196;2024-01-06T14:58:35;4.40;1.00
9824;DHT22;4951;50.778;7.196;2024-01-06T15:01:06;4.30;1.00
9824;DHT22;4951;50.778;7.196;2024-01-06T15:03:38;4.30;1.00
9824;DHT22;4951;50.778;7.196;2024-01-06T15:06:08;4.20;1.00
9824;DHT22;4951;50.778;7.196;2024-01-06T15:08:44;4.20;1.00
9824;DHT22;4951;50.778;7.196;2024-01-06T15:11:17;4.20;1.00
9824;DHT22;4951;50.778;7.196;2024-01-06T15:13:55;4.20;2.80
9824;DHT22;4951;50.778;7.196;2024-01-06T15:16:28;4.10;6.80
9824;DHT22;4951;50.778;7.196;2024-01-06T15:18:59;4.10;7.90
9824;DHT22;4951;50.778;7.196;2024-01-06T15:21:34;4.10;9.70
9824;DHT22;4951;50.778;7.196;2024-01-06T15:24:10;4.10;10.00
9824;DHT22;4951;50.778;7.196;2024-01-06T15:26:47;4.00;11.70
9824;DHT22;4951;50.778;7.196;2024-01-06T15:29:16;4.00;13.10
9824;DHT22;4951;50.778;7.196;2024-01-06T15:31:50;4.00;13.70
9824;DHT22;4951;50.778;7.196;2024-01-06T15:34:32;4.00;14.90
9824;DHT22;4951;50.778;7.196;2024-01-06T15:37:07;4.00;18.20
9824;DHT22;4951;50.778;7.196;2024-01-06T15:39:41;4.00;18.60
9824;DHT22;4951;50.778;7.196;2024-01-06T15:42:11;4.00;20.30
9824;DHT22;4951;50.778;7.196;2024-01-06T15:44:40;4.00;20.30
9824;DHT22;4951;50.778;7.196;2024-01-06T15:47:16;4.00;22.10
9824;DHT22;4951;50.778;7.196;2024-01-06T15:50:06;4.00;22.80
9824;DHT22;4951;50.778;7.196;2024-01-06T15:52:38;4.00;20.40
9824;DHT22;4951;50.778;7.196;2024-01-06T15:55:08;3.90;17.10
9824;DHT22;4951;50.778;7.196;2024-01-06T15:57:38;3.90;17.20
9824;DHT22;4951;50.778;7.196;2024-01-06T16:00:08;3.90;14.30
9824;DHT22;4951;50.778;7.196;2024-01-06T16:02:41;3.80;11.10
9824;DHT22;4951;50.778;7.196;2024-01-06T16:05:12;3.80;11.70
9824;DHT22;4951;50.778;7.196;2024-01-06T16:07:54;3.70;10.70
9824;DHT22;4951;50.778;7.196;2024-01-06T16:10:33;3.70;15.30
9824;DHT22;4951;50.778;7.196;2024-01-06T16:13:03;3.60;21.40
9824;DHT22;4951;50.778;7.196;2024-01-06T16:15:33;3.70;25.50
9824;DHT22;4951;50.778;7.196;2024-01-06T16:18:07;3.70;27.90
9824;DHT22;4951;50.778;7.196;2024-01-06T16:20:41;3.70;30.60
9824;DHT22;4951;50.778;7.196;2024-01-06T16:23:16;3.70;35.10
9824;DHT22;4951;50.778;7.196;2024-01-06T16:26:00;3.70;34.50
9824;DHT22;4951;50.778;7.196;2024-01-06T16:28:43;3.70;30.20
9824;DHT22;4951;50.778;7.196;2024-01-06T16:31:19;3.70;26.20
9824;DHT22;4951;50.778;7.196;2024-01-06T16:33:57;3.70;25.60
9824;DHT22;4951;50.778;7.196;2024-01-06T16:36:28;3.60;31.50
9824;DHT22;4951;50.778;7.196;2024-01-06T16:39:17;3.60;33.40
9824;DHT22;4951;50.778;7.196;2024-01-06T16:42:16;3.70;32.40
9824;DHT22;4951;50.778;7.196;2024-01-06T16:44:49;3.60;33.40
9824;DHT22;4951;50.778;7.196;2024-01-06T16:47:20;3.70;29.60
9824;DHT22;4951;50.778;7.196;2024-01-06T16:50:02;3.60;31.90
9824;DHT22;4951;50.778;7.196;2024-01-06T16:52:34;3.60;32.50
9824;DHT22;4951;50.778;7.196;2024-01-06T16:55:11;3.60;35.30
9824;DHT22;4951;50.778;7.196;2024-01-06T16:58:04;3.60;34.50
9824;DHT22;4951;50.778;7.196;2024-01-06T17:00:49;3.60;31.30
9824;DHT22;4951;50.778;7.196;2024-01-06T17:03:22;3.50;31.10
9824;DHT22;4951;50.778;7.196;2024-01-06T17:06:01;3.40;25.40
9824;DHT22;4951;50.778;7.196;2024-01-06T17:08:33;3.40;30.30
9824;DHT22;4951;50.778;7.196;2024-01-06T17:11:04;3.40;36.10
9824;DHT22;4951;50.778;7.196;2024-01-06T17:13:36;3.40;39.90
9824;DHT22;4951;50.778;7.196;2024-01-06T17:16:05;3.40;44.70
9824;DHT22;4951;50.778;7.196;2024-01-06T17:18:37;3.40;49.50
9824;DHT22;4951;50.778;7.196;2024-01-06T17:21:07;3.40;52.80
9824;DHT22;4951;50.778;7.196;2024-01-06T17:23:40;3.40;58.70
9824;DHT22;4951;50.778;7.196;2024-01-06T17:26:09;3.40;58.70
9824;DHT22;4951;50.778;7.196;2024-01-06T17:28:37;3.40;49.00
9824;DHT22;4951;50.778;7.196;2024-01-06T17:31:16;3.40;49.00
9824;DHT22;4951;50.778;7.196;2024-01-06T17:33:47;3.40;50.00
9824;DHT22;4951;50.778;7.196;2024-01-06T17:36:21;3.30;49.20
9824;DHT22;4951;50.778;7.196;2024-01-06T17:38:58;3.30;48.20
9824;DHT22;4951;50.778;7.196;2024-01-06T17:41:33;3.30;53.80
9824;DHT22;4951;50.778;7.196;2024-01-06T17:44:07;3.30;53.20
9824;DHT22;4951;50.778;7.196;2024-01-06T17:46:45;3.30;60.40